createdAt,value
2023-01-09T00:00:52.524Z,27.25
2023-01-09T00:11:00.297Z,29.15
2023-01-09T00:21:04.851Z,21.25
2023-01-09T00:31:08.649Z,18.58
2023-01-09T00:41:15.945Z,18.63
2023-01-09T00:51:20.412Z,22.20
2023-01-09T01:01:22.826Z,31.92
2023-01-09T01:11:25.161Z,23.73
2023-01-09T01:21:27.669Z,25.88
2023-01-09T01:31:29.848Z,22.67
2023-01-09T01:41:32.118Z,25.17
2023-01-09T01:51:39.098Z,33.88
2023-01-09T02:01:44.447Z,45.17
2023-01-09T02:11:48.880Z,31.40
2023-01-09T02:22:36.018Z,25.05
2023-01-09T02:32:43.818Z,31.42
2023-01-09T02:42:48.458Z,28.63
2023-01-09T02:52:59.402Z,30.17
2023-01-09T03:03:10.206Z,27.25
2023-01-09T03:13:18.473Z,25.65
2023-01-09T03:23:20.727Z,16.45
2023-01-09T03:33:22.960Z,22.08
2023-01-09T03:43:25.139Z,22.80
2023-01-09T03:53:28.640Z,20.92
2023-01-09T04:03:30.983Z,26.80
2023-01-09T04:13:33.346Z,22.85
2023-01-09T04:23:35.534Z,26.50
2023-01-09T04:33:37.759Z,26.10
2023-01-09T04:43:42.319Z,31.35
2023-01-09T04:53:44.523Z,32.35
2023-01-09T05:03:46.790Z,21.52
2023-01-09T05:13:48.953Z,4.32
2023-01-09T05:23:51.207Z,36.13
2023-01-09T05:33:53.763Z,8.38
2023-01-09T05:43:55.966Z,8.40
2023-01-09T05:53:59.184Z,10.05
2023-01-09T06:04:01.438Z,11.23
2023-01-09T06:14:03.675Z,12.20
2023-01-09T06:24:06.422Z,13.85
2023-01-09T06:34:09.072Z,12.20
2023-01-09T06:44:11.416Z,9.40
2023-01-09T06:54:13.685Z,12.02
2023-01-09T07:04:17.614Z,11.63
2023-01-09T07:14:20.117Z,13.98
2023-01-09T07:24:22.333Z,16.05
2023-01-09T07:34:24.546Z,18.67
2023-01-09T07:44:27.144Z,15.82
2023-01-09T07:54:29.410Z,21.15
2023-01-09T08:04:31.838Z,16.50
2023-01-09T08:14:34.297Z,10.55
2023-01-09T08:24:36.861Z,6.85
2023-01-09T08:34:39.099Z,5.78
2023-01-09T08:45:00.029Z,3.22
2023-01-09T08:55:02.241Z,4.63
2023-01-09T09:05:04.772Z,7.85
2023-01-09T09:15:13.636Z,17.13
2023-01-09T09:25:17.071Z,10.23
2023-01-09T09:35:23.797Z,10.60
2023-01-09T09:45:59.535Z,4.40
2023-01-09T09:56:02.826Z,4.10
2023-01-09T10:06:10.941Z,12.85
2023-01-09T10:16:35.534Z,5.70
2023-01-09T10:26:46.265Z,6.53
2023-01-09T10:37:00.194Z,5.13
2023-01-09T10:47:09.022Z,10.02
2023-01-09T10:57:16.388Z,9.27
2023-01-09T11:07:20.910Z,7.40
2023-01-09T11:17:27.174Z,19.45
2023-01-09T11:27:29.523Z,14.07
2023-01-09T11:37:32.796Z,7.95
2023-01-09T11:47:41.011Z,8.25
2023-01-09T11:57:43.292Z,45.45
2023-01-09T12:07:57.791Z,16.58
2023-01-09T12:18:11.655Z,18.30
2023-01-09T12:28:13.808Z,6.78
2023-01-09T12:38:37.282Z,14.23
2023-01-09T12:49:09.341Z,6.63
2023-01-09T12:59:33.228Z,5.95
2023-01-09T13:09:53.478Z,9.27
2023-01-09T13:19:55.857Z,33.22
2023-01-09T13:30:09.000Z,10.18
2023-01-09T13:40:20.064Z,16.48
2023-01-09T13:50:26.573Z,10.90
2023-01-09T14:00:28.803Z,16.77
2023-01-09T14:10:39.777Z,4.30
2023-01-09T14:20:45.993Z,13.70
2023-01-09T14:30:54.447Z,17.75
2023-01-09T14:51:22.268Z,2.97
2023-01-09T15:01:27.490Z,4.35
2023-01-09T15:11:31.331Z,4.30
2023-01-09T15:21:33.678Z,3.15
2023-01-09T15:31:39.133Z,4.22
2023-01-09T15:42:00.102Z,2.25
2023-01-09T15:52:03.182Z,2.65
2023-01-09T16:02:31.139Z,3.63
2023-01-09T16:12:33.553Z,4.73
2023-01-09T16:22:37.021Z,4.72
2023-01-09T16:32:51.554Z,28.40
2023-01-09T16:43:01.557Z,37.22
2023-01-09T16:53:14.590Z,4.95
2023-01-09T17:03:17.775Z,11.57
2023-01-09T17:13:20.497Z,69.22
2023-01-09T17:23:25.931Z,73.40
2023-01-09T17:33:28.457Z,155.63
2023-01-09T17:43:32.237Z,63.65
2023-01-09T17:53:34.449Z,28.63
2023-01-09T18:03:36.696Z,19.73
2023-01-09T18:13:38.940Z,12.13
2023-01-09T18:23:41.234Z,22.05
2023-01-09T18:33:46.880Z,18.98
2023-01-09T18:43:54.044Z,6.95
2023-01-09T18:53:57.321Z,6.57
2023-01-09T19:04:00.123Z,14.13
2023-01-09T19:14:02.642Z,17.30
2023-01-09T19:24:05.295Z,8.65
2023-01-09T19:34:08.044Z,22.60
2023-01-09T19:44:11.000Z,23.73
2023-01-09T19:54:13.250Z,13.60
2023-01-09T20:04:17.475Z,8.75
2023-01-09T20:14:20.973Z,6.95
2023-01-09T20:24:23.271Z,3.80
2023-01-09T20:34:25.485Z,2.88
2023-01-09T20:44:27.692Z,5.00
2023-01-09T20:54:29.944Z,40.53
2023-01-09T21:04:32.313Z,13.98
2023-01-09T21:14:36.010Z,10.23
2023-01-09T21:24:38.368Z,6.15
2023-01-09T21:40:13.905Z,6.38
2023-01-09T21:50:17.462Z,3.50
2023-01-09T22:00:20.152Z,3.15
2023-01-09T22:10:22.580Z,2.95
2023-01-09T22:20:24.866Z,2.50
2023-01-09T22:30:27.172Z,2.75
2023-01-09T22:40:29.417Z,2.35
2023-01-09T22:50:31.628Z,1.80
2023-01-09T23:00:33.911Z,2.58
2023-01-09T23:10:36.216Z,1.33
2023-01-09T23:20:38.516Z,13.02
2023-01-09T23:30:40.765Z,8.65
2023-01-09T23:40:43.183Z,1.92
2023-01-09T23:50:53.297Z,3.50
